createdAt,value
2023-04-27T00:01:37.135Z,3.30
2023-04-27T00:04:07.678Z,3.10
2023-04-27T00:06:34.967Z,3.10
2023-04-27T00:09:01.815Z,2.97
2023-04-27T00:11:28.521Z,2.67
2023-04-27T00:13:56.205Z,3.00
2023-04-27T00:16:23.030Z,3.43
2023-04-27T00:18:49.926Z,3.20
2023-04-27T00:21:16.692Z,3.17
2023-04-27T00:23:43.435Z,3.20
2023-04-27T00:26:10.083Z,3.40
2023-04-27T00:28:36.794Z,3.30
2023-04-27T00:31:04.640Z,3.43
2023-04-27T00:33:31.376Z,3.10
2023-04-27T00:36:02.281Z,3.50
2023-04-27T00:38:30.361Z,2.70
2023-04-27T00:41:05.166Z,3.37
2023-04-27T00:43:32.676Z,3.10
2023-04-27T00:46:00.194Z,3.20
2023-04-27T00:48:27.043Z,3.37
2023-04-27T00:50:54.066Z,3.00
2023-04-27T00:53:21.667Z,3.20
2023-04-27T00:55:48.497Z,3.10
2023-04-27T00:58:15.545Z,3.70
2023-04-27T01:00:42.705Z,3.07
2023-04-27T01:03:09.800Z,3.33
2023-04-27T01:05:37.621Z,3.20
2023-04-27T01:08:04.905Z,3.37
2023-04-27T01:10:31.603Z,2.93
2023-04-27T01:12:58.326Z,3.03
2023-04-27T01:15:25.215Z,2.80
2023-04-27T01:17:58.311Z,2.83
2023-04-27T01:20:25.497Z,3.70
2023-04-27T01:22:53.692Z,2.90
2023-04-27T01:25:20.610Z,3.37
2023-04-27T01:27:47.339Z,3.23
2023-04-27T01:30:14.206Z,3.17
2023-04-27T01:32:41.066Z,3.27
2023-04-27T01:35:08.465Z,2.97
2023-04-27T01:37:35.940Z,2.63
2023-04-27T01:40:04.583Z,3.03
2023-04-27T01:42:31.320Z,2.97
2023-04-27T01:44:58.051Z,2.93
2023-04-27T01:47:24.756Z,3.13
2023-04-27T01:49:51.541Z,3.50
2023-04-27T01:52:18.267Z,3.20
2023-04-27T01:54:45.036Z,2.80
2023-04-27T01:57:11.937Z,2.80
2023-04-27T01:59:38.600Z,2.67
2023-04-27T02:02:05.414Z,3.67
2023-04-27T02:04:32.232Z,2.80
2023-04-27T02:06:59.010Z,3.43
2023-04-27T02:09:25.818Z,3.07
2023-04-27T02:11:52.513Z,2.97
2023-04-27T02:14:19.230Z,3.33
2023-04-27T02:16:46.023Z,3.87
2023-04-27T02:19:12.889Z,3.63
2023-04-27T02:21:40.864Z,2.93
2023-04-27T02:24:07.575Z,3.33
2023-04-27T02:26:34.246Z,3.63
2023-04-27T02:29:01.190Z,3.37
2023-04-27T02:31:28.344Z,4.00
2023-04-27T02:33:55.823Z,3.67
2023-04-27T02:36:22.527Z,3.63
2023-04-27T02:38:49.197Z,3.53
2023-04-27T02:41:15.920Z,4.40
2023-04-27T02:43:42.600Z,3.67
2023-04-27T02:46:09.361Z,3.70
2023-04-27T02:48:36.456Z,3.90
2023-04-27T02:51:06.911Z,3.97
2023-04-27T02:53:33.593Z,3.77
2023-04-27T02:56:00.679Z,3.50
2023-04-27T02:58:27.378Z,3.57
2023-04-27T03:00:57.468Z,3.87
2023-04-27T03:03:24.862Z,3.33
2023-04-27T03:05:51.652Z,3.60
2023-04-27T03:08:18.354Z,3.70
2023-04-27T03:10:45.070Z,3.50
2023-04-27T03:13:11.903Z,3.03
2023-04-27T03:15:38.674Z,3.27
2023-04-27T03:18:06.281Z,4.07
2023-04-27T03:20:33.117Z,3.57
2023-04-27T03:22:59.789Z,3.50
2023-04-27T03:25:26.500Z,3.90
2023-04-27T03:27:53.210Z,3.30
2023-04-27T03:30:19.967Z,3.30
2023-04-27T03:32:47.900Z,3.80
2023-04-27T03:35:14.961Z,3.63
2023-04-27T03:37:41.947Z,3.50
2023-04-27T03:40:09.274Z,3.47
2023-04-27T03:42:35.984Z,3.60
2023-04-27T03:45:03.004Z,3.50
2023-04-27T03:47:30.064Z,3.60
2023-04-27T03:49:57.252Z,3.40
2023-04-27T03:52:24.276Z,3.47
2023-04-27T03:54:51.179Z,3.23
2023-04-27T03:57:17.947Z,3.30
2023-04-27T03:59:44.681Z,3.60
2023-04-27T04:02:11.808Z,3.30
2023-04-27T04:04:38.955Z,2.97
2023-04-27T04:07:06.041Z,3.20
2023-04-27T04:09:32.791Z,3.10
2023-04-27T04:11:59.525Z,3.20
2023-04-27T04:14:27.945Z,3.10
2023-04-27T04:16:54.611Z,3.10
2023-04-27T04:19:22.199Z,3.63
2023-04-27T04:21:49.015Z,3.00
2023-04-27T04:24:16.432Z,2.90
2023-04-27T04:26:43.122Z,3.10
2023-04-27T04:29:11.187Z,2.93
2023-04-27T04:31:38.248Z,3.63
2023-04-27T04:34:04.961Z,3.10
2023-04-27T04:36:32.204Z,3.80
2023-04-27T04:38:59.299Z,3.83
2023-04-27T04:41:26.291Z,3.50
2023-04-27T04:43:52.953Z,2.83
2023-04-27T04:46:20.186Z,3.03
2023-04-27T04:48:47.189Z,2.83
2023-04-27T04:51:14.018Z,2.93
2023-04-27T04:53:40.842Z,2.90
2023-04-27T04:56:12.189Z,3.10
2023-04-27T04:58:39.282Z,3.10
2023-04-27T05:01:06.857Z,2.70
2023-04-27T05:03:33.940Z,2.70
2023-04-27T05:06:01.104Z,3.20
2023-04-27T05:08:27.876Z,2.60
2023-04-27T05:10:54.823Z,2.90
2023-04-27T05:13:21.846Z,2.80
2023-04-27T05:15:48.764Z,2.77
2023-04-27T05:18:15.812Z,2.90
2023-04-27T05:20:42.594Z,2.70
2023-04-27T05:23:09.297Z,2.63
2023-04-27T05:25:41.930Z,2.27
2023-04-27T05:28:10.157Z,2.40
2023-04-27T05:30:37.706Z,2.60
2023-04-27T05:33:05.281Z,2.30
2023-04-27T05:35:32.843Z,2.70
2023-04-27T05:37:59.824Z,2.30
2023-04-27T05:40:27.147Z,2.40
2023-04-27T05:42:53.985Z,2.40
2023-04-27T05:45:21.759Z,2.50
2023-04-27T05:47:48.603Z,2.47
2023-04-27T05:50:15.513Z,2.27
2023-04-27T05:52:42.335Z,2.57
2023-04-27T05:55:09.225Z,2.43
2023-04-27T05:57:36.180Z,2.30
2023-04-27T06:00:08.988Z,2.13
2023-04-27T06:02:36.036Z,2.40
2023-04-27T06:05:03.870Z,2.30
2023-04-27T06:07:37.463Z,2.50
2023-04-27T06:10:23.218Z,2.50
2023-04-27T06:12:49.879Z,2.37
2023-04-27T06:15:17.133Z,2.27
2023-04-27T06:17:44.272Z,2.57
2023-04-27T06:20:12.250Z,2.40
2023-04-27T06:22:39.379Z,2.20
2023-04-27T06:25:06.874Z,2.50
2023-04-27T06:27:34.406Z,2.43
2023-04-27T06:30:01.480Z,1.90
2023-04-27T06:32:28.237Z,1.93
2023-04-27T06:34:55.000Z,1.87
2023-04-27T06:37:21.666Z,2.10
2023-04-27T06:39:48.399Z,1.93
2023-04-27T06:42:15.170Z,1.80
2023-04-27T06:44:41.988Z,2.00
2023-04-27T06:47:08.699Z,1.73
2023-04-27T06:49:35.431Z,1.90
2023-04-27T06:52:02.915Z,1.93
2023-04-27T06:54:29.717Z,1.80
2023-04-27T06:56:56.504Z,1.83
2023-04-27T06:59:23.324Z,1.60
2023-04-27T07:01:50.189Z,1.80
2023-04-27T07:04:17.112Z,1.90
2023-04-27T07:06:43.950Z,2.03
2023-04-27T07:09:24.054Z,2.00
2023-04-27T07:11:53.638Z,2.20
2023-04-27T07:14:20.637Z,2.60
2023-04-27T07:16:47.774Z,2.20
2023-04-27T07:19:14.684Z,1.90
2023-04-27T07:21:41.661Z,2.10
2023-04-27T07:24:08.602Z,2.40
2023-04-27T07:26:36.517Z,2.13
2023-04-27T07:29:11.235Z,2.40
2023-04-27T07:31:46.388Z,2.13
2023-04-27T07:34:13.553Z,2.13
2023-04-27T07:36:40.187Z,2.40
2023-04-27T07:39:08.074Z,2.27
2023-04-27T07:41:35.605Z,2.37
2023-04-27T07:44:02.624Z,2.47
2023-04-27T07:46:31.690Z,2.10
2023-04-27T07:48:59.820Z,2.07
2023-04-27T07:51:28.811Z,2.23
2023-04-27T07:53:56.381Z,2.13
2023-04-27T07:56:23.045Z,2.50
2023-04-27T07:58:49.695Z,2.37
2023-04-27T08:01:18.369Z,2.30
2023-04-27T08:03:46.475Z,2.70
2023-04-27T08:06:13.968Z,2.50
2023-04-27T08:08:40.798Z,2.17
2023-04-27T08:11:12.076Z,2.07
2023-04-27T08:13:38.842Z,1.87
2023-04-27T08:16:06.261Z,2.20
2023-04-27T08:18:32.996Z,2.00
2023-04-27T08:21:00.304Z,1.93
2023-04-27T08:23:31.334Z,2.10
2023-04-27T08:25:58.061Z,2.10
2023-04-27T08:28:25.058Z,1.67
2023-04-27T08:30:51.836Z,1.80
2023-04-27T08:33:18.625Z,2.10
2023-04-27T08:35:45.315Z,1.90
2023-04-27T08:38:13.269Z,2.10
2023-04-27T08:40:44.069Z,2.40
2023-04-27T08:43:14.978Z,2.00
2023-04-27T08:45:48.339Z,2.03
2023-04-27T08:48:15.269Z,2.50
2023-04-27T08:50:44.720Z,2.13
2023-04-27T08:53:22.415Z,2.40
2023-04-27T08:55:50.352Z,2.10
2023-04-27T08:58:17.105Z,1.97
2023-04-27T09:00:45.469Z,2.27
2023-04-27T09:03:25.786Z,1.53
2023-04-27T09:06:03.625Z,2.20
2023-04-27T09:08:45.497Z,1.87
2023-04-27T09:11:13.358Z,1.70
2023-04-27T09:13:42.016Z,1.90
2023-04-27T09:16:09.249Z,1.70
2023-04-27T09:18:38.069Z,1.70
2023-04-27T09:21:04.847Z,1.87
2023-04-27T09:23:39.250Z,1.53
2023-04-27T09:26:10.848Z,1.40
2023-04-27T09:28:41.315Z,1.30
2023-04-27T09:31:09.609Z,1.77
2023-04-27T09:33:39.726Z,1.93
2023-04-27T09:36:07.305Z,1.60
2023-04-27T09:38:34.199Z,1.70
2023-04-27T09:41:01.707Z,1.90
2023-04-27T09:43:29.989Z,1.80
2023-04-27T09:45:57.904Z,1.90
2023-04-27T09:48:26.177Z,1.77
2023-04-27T09:50:53.397Z,1.60
2023-04-27T09:53:36.564Z,1.67
2023-04-27T09:56:13.624Z,1.80
2023-04-27T09:59:02.082Z,1.80
2023-04-27T10:01:44.108Z,1.80
2023-04-27T10:04:48.153Z,1.80
2023-04-27T10:07:16.529Z,2.00
2023-04-27T10:09:49.647Z,2.00
2023-04-27T10:12:27.706Z,1.60
2023-04-27T10:14:56.733Z,1.70
2023-04-27T10:17:34.595Z,2.13
2023-04-27T10:20:09.149Z,1.80
2023-04-27T10:22:46.312Z,2.00
2023-04-27T10:25:22.493Z,1.90
2023-04-27T10:27:50.921Z,1.80
2023-04-27T10:30:18.714Z,1.80
2023-04-27T10:32:56.926Z,1.50
2023-04-27T10:35:45.856Z,1.73
2023-04-27T10:38:17.568Z,1.60
2023-04-27T10:40:46.546Z,1.57
2023-04-27T10:43:15.941Z,1.60
2023-04-27T10:45:44.063Z,1.60
2023-04-27T10:48:15.845Z,1.60
2023-04-27T10:50:44.712Z,1.73
2023-04-27T10:53:11.522Z,1.60
2023-04-27T10:55:38.236Z,1.60
2023-04-27T10:58:04.933Z,1.60
2023-04-27T11:00:44.250Z,1.60
2023-04-27T11:03:19.708Z,1.40
2023-04-27T11:05:49.165Z,1.60
2023-04-27T11:08:20.931Z,1.57
2023-04-27T11:10:50.444Z,1.73
2023-04-27T11:13:20.016Z,1.90
2023-04-27T11:15:55.220Z,2.00
2023-04-27T11:18:23.979Z,2.17
2023-04-27T11:20:52.867Z,1.93
2023-04-27T11:23:41.650Z,2.03
2023-04-27T11:26:16.063Z,2.30
2023-04-27T11:28:44.194Z,2.43
2023-04-27T11:31:11.637Z,2.60
2023-04-27T11:33:40.242Z,2.50
2023-04-27T11:36:17.933Z,2.90
2023-04-27T11:38:44.899Z,2.63
2023-04-27T11:41:13.177Z,2.50
2023-04-27T11:43:47.239Z,2.60
2023-04-27T11:46:14.159Z,2.60
2023-04-27T11:48:41.280Z,2.43
2023-04-27T11:51:11.237Z,2.50
2023-04-27T11:53:39.977Z,3.07
2023-04-27T11:56:10.939Z,2.57
2023-04-27T11:58:39.292Z,2.37
2023-04-27T12:01:07.739Z,2.40
2023-04-27T12:03:35.301Z,2.60
2023-04-27T12:08:31.855Z,1.77
2023-04-27T12:10:58.670Z,2.30
2023-04-27T12:13:25.423Z,2.40
2023-04-27T12:15:52.313Z,2.30
2023-04-27T12:18:18.987Z,1.93
2023-04-27T12:20:46.243Z,2.13
2023-04-27T12:23:12.928Z,1.90
2023-04-27T12:25:41.168Z,1.93
2023-04-27T12:28:08.091Z,1.80
2023-04-27T12:30:35.227Z,2.00
2023-04-27T12:33:04.440Z,2.10
2023-04-27T12:35:32.132Z,1.70
2023-04-27T12:37:58.937Z,2.10
2023-04-27T12:40:26.016Z,1.70
2023-04-27T12:42:53.203Z,1.90
2023-04-27T12:45:19.832Z,2.07
2023-04-27T12:48:01.053Z,1.80
2023-04-27T12:50:31.719Z,1.77
2023-04-27T12:52:58.498Z,1.87
2023-04-27T12:57:58.350Z,2.17
2023-04-27T13:00:25.544Z,1.90
2023-04-27T13:02:53.114Z,2.27
2023-04-27T13:05:22.085Z,2.10
2023-04-27T13:07:49.241Z,2.00
2023-04-27T13:10:16.191Z,2.27
2023-04-27T13:12:43.158Z,2.53
2023-04-27T13:15:10.337Z,2.40
2023-04-27T13:17:37.403Z,2.07
2023-04-27T13:20:04.423Z,2.23
2023-04-27T13:22:31.042Z,2.10
2023-04-27T13:24:58.132Z,2.23
2023-04-27T13:27:28.323Z,2.40
2023-04-27T13:29:56.199Z,2.30
2023-04-27T13:32:23.076Z,2.40
2023-04-27T13:34:49.821Z,2.60
2023-04-27T13:37:17.036Z,2.83
2023-04-27T13:39:43.849Z,2.60
2023-04-27T13:42:10.774Z,2.67
2023-04-27T13:44:37.589Z,2.77
2023-04-27T13:47:04.930Z,3.17
2023-04-27T13:49:31.743Z,3.00
2023-04-27T13:51:58.696Z,3.40
2023-04-27T13:54:25.525Z,3.13
2023-04-27T13:56:52.235Z,2.90
2023-04-27T13:59:18.874Z,3.07
2023-04-27T14:01:45.809Z,3.20
2023-04-27T14:04:12.651Z,3.17
2023-04-27T14:06:39.489Z,3.27
2023-04-27T14:09:06.271Z,3.37
2023-04-27T14:11:39.629Z,3.00
2023-04-27T14:14:12.062Z,2.90
2023-04-27T14:16:38.786Z,2.90
2023-04-27T14:19:05.617Z,2.70
2023-04-27T14:21:32.339Z,2.70
2023-04-27T14:23:58.991Z,2.60
2023-04-27T14:26:25.670Z,3.07
2023-04-27T14:28:52.358Z,2.83
2023-04-27T14:31:19.078Z,2.40
2023-04-27T14:33:46.099Z,2.27
2023-04-27T14:36:12.939Z,2.47
2023-04-27T14:38:39.598Z,2.40
2023-04-27T14:41:08.388Z,2.00
2023-04-27T14:43:35.064Z,2.50
2023-04-27T14:46:19.241Z,2.40
2023-04-27T14:48:47.995Z,2.10
2023-04-27T14:51:15.961Z,2.40
2023-04-27T14:53:43.010Z,2.40
2023-04-27T14:56:09.719Z,3.27
2023-04-27T14:58:36.414Z,2.87
2023-04-27T15:01:06.588Z,3.00
2023-04-27T15:03:33.964Z,2.80
2023-04-27T15:06:01.959Z,2.50
2023-04-27T15:08:30.225Z,2.97
2023-04-27T15:11:00.092Z,2.50
2023-04-27T15:13:27.677Z,2.80
2023-04-27T15:15:59.186Z,2.87
2023-04-27T15:18:26.012Z,2.87
2023-04-27T15:20:56.781Z,2.77
2023-04-27T15:23:24.739Z,2.80
2023-04-27T15:25:54.670Z,2.60
2023-04-27T15:28:21.938Z,3.00
2023-04-27T15:30:49.257Z,3.07
2023-04-27T15:33:17.140Z,3.53
2023-04-27T15:35:44.166Z,2.67
2023-04-27T15:38:12.694Z,2.60
2023-04-27T15:40:40.070Z,2.50
2023-04-27T15:43:06.965Z,2.40
2023-04-27T15:45:33.855Z,2.60
2023-04-27T15:48:00.767Z,2.63
2023-04-27T15:50:27.545Z,2.50
2023-04-27T15:52:54.298Z,2.60
2023-04-27T15:55:22.086Z,2.30
2023-04-27T15:57:49.048Z,2.60
2023-04-27T16:00:16.977Z,2.70
2023-04-27T16:02:43.965Z,2.60
2023-04-27T16:05:11.153Z,2.57
2023-04-27T16:07:39.854Z,2.27
2023-04-27T16:10:07.579Z,2.47
2023-04-27T16:12:34.490Z,2.50
2023-04-27T16:15:01.185Z,2.90
2023-04-27T16:17:31.242Z,2.50
2023-04-27T16:19:58.167Z,2.50
2023-04-27T16:22:24.901Z,2.63
2023-04-27T16:24:51.644Z,3.00
2023-04-27T16:27:20.584Z,2.60
2023-04-27T16:29:47.465Z,2.40
2023-04-27T16:32:14.226Z,2.57
2023-04-27T16:34:41.591Z,3.17
2023-04-27T16:37:08.259Z,2.47
2023-04-27T16:39:34.998Z,2.67
2023-04-27T16:42:01.686Z,2.37
2023-04-27T16:44:28.452Z,2.43
2023-04-27T16:46:55.080Z,3.80
2023-04-27T16:49:21.798Z,2.97
2023-04-27T16:51:48.559Z,2.90
2023-04-27T16:54:16.515Z,2.93
2023-04-27T16:56:43.660Z,2.63
2023-04-27T16:59:13.372Z,2.50
2023-04-27T17:01:40.476Z,2.30
2023-04-27T17:04:07.504Z,2.77
2023-04-27T17:06:34.808Z,2.53
2023-04-27T17:09:01.723Z,2.63
2023-04-27T17:11:28.718Z,2.27
2023-04-27T17:13:55.570Z,2.67
2023-04-27T17:16:23.325Z,2.90
2023-04-27T17:18:50.203Z,2.77
2023-04-27T17:21:17.419Z,2.93
2023-04-27T17:23:46.644Z,3.43
2023-04-27T17:26:18.470Z,3.10
2023-04-27T17:28:45.937Z,3.00
2023-04-27T17:31:12.865Z,3.57
2023-04-27T17:33:39.584Z,2.80
2023-04-27T17:36:09.028Z,3.40
2023-04-27T17:38:35.676Z,2.80
2023-04-27T17:41:02.311Z,2.90
2023-04-27T17:43:29.058Z,3.23
2023-04-27T17:45:55.817Z,3.07
2023-04-27T17:48:22.505Z,2.77
2023-04-27T17:50:49.230Z,3.37
2023-04-27T17:53:15.926Z,2.90
2023-04-27T17:55:45.661Z,3.57
2023-04-27T17:58:12.406Z,3.17
2023-04-27T18:00:39.150Z,3.77
2023-04-27T18:03:06.244Z,3.57
2023-04-27T18:05:33.141Z,3.13
2023-04-27T18:07:59.825Z,3.03
2023-04-27T18:10:26.587Z,5.27
2023-04-27T18:12:53.306Z,7.33
2023-04-27T18:15:20.104Z,5.23
2023-04-27T18:17:47.011Z,5.83
2023-04-27T18:20:15.332Z,6.20
2023-04-27T18:22:42.012Z,11.50
2023-04-27T18:25:09.722Z,13.80
2023-04-27T18:27:37.669Z,7.53
2023-04-27T18:30:05.874Z,3.93
2023-04-27T18:32:34.514Z,4.30
2023-04-27T18:35:01.408Z,3.60
2023-04-27T18:37:28.159Z,3.73
2023-04-27T18:39:54.850Z,3.60
2023-04-27T18:42:21.867Z,3.57
2023-04-27T18:44:48.567Z,3.23
2023-04-27T18:47:15.353Z,3.60
2023-04-27T18:49:42.095Z,3.30
2023-04-27T18:52:11.396Z,3.20
2023-04-27T18:54:38.726Z,3.20
2023-04-27T18:57:05.500Z,3.40
2023-04-27T18:59:32.224Z,3.27
2023-04-27T19:01:58.890Z,3.70
2023-04-27T19:04:26.276Z,3.43
2023-04-27T19:06:52.984Z,2.80
2023-04-27T19:09:19.834Z,2.73
2023-04-27T19:11:49.436Z,2.80
2023-04-27T19:14:19.807Z,3.30
2023-04-27T19:16:46.756Z,3.00
2023-04-27T19:19:13.634Z,3.03
2023-04-27T19:21:41.992Z,3.40
2023-04-27T19:24:09.268Z,3.13
2023-04-27T19:26:36.736Z,3.80
2023-04-27T19:29:03.464Z,3.37
2023-04-27T19:31:30.212Z,3.30
2023-04-27T19:36:30.720Z,3.20
2023-04-27T19:38:57.438Z,3.43
2023-04-27T19:41:25.145Z,3.33
2023-04-27T19:43:51.880Z,3.30
2023-04-27T19:46:18.812Z,3.53
2023-04-27T19:48:45.826Z,3.57
2023-04-27T19:51:12.605Z,2.93
2023-04-27T19:53:39.293Z,3.33
2023-04-27T19:56:06.243Z,3.30
2023-04-27T19:58:34.588Z,3.30
2023-04-27T20:01:01.952Z,3.00
2023-04-27T20:03:28.681Z,3.20
2023-04-27T20:05:55.896Z,3.43
2023-04-27T20:08:22.859Z,3.10
2023-04-27T20:10:49.620Z,3.13
2023-04-27T20:13:16.357Z,3.10
2023-04-27T20:15:43.468Z,3.20
2023-04-27T20:18:10.159Z,3.10
2023-04-27T20:20:37.252Z,3.10
2023-04-27T20:23:04.043Z,3.10
2023-04-27T20:25:30.767Z,3.30
2023-04-27T20:27:57.488Z,3.00
2023-04-27T20:30:24.207Z,2.90
2023-04-27T20:32:51.003Z,2.83
2023-04-27T20:35:17.740Z,3.00
2023-04-27T20:37:44.507Z,2.90
2023-04-27T20:40:14.569Z,3.63
2023-04-27T20:42:42.596Z,2.87
2023-04-27T20:45:11.452Z,3.20
2023-04-27T20:47:38.536Z,3.30
2023-04-27T20:50:06.348Z,3.10
2023-04-27T20:52:34.568Z,3.80
2023-04-27T20:55:02.152Z,2.90
2023-04-27T20:57:29.211Z,3.10
2023-04-27T20:59:59.068Z,3.13
2023-04-27T21:02:25.831Z,2.80
2023-04-27T21:04:53.054Z,3.30
2023-04-27T21:07:19.918Z,3.20
2023-04-27T21:09:46.685Z,3.77
2023-04-27T21:12:14.825Z,3.30
2023-04-27T21:14:41.499Z,3.10
2023-04-27T21:17:08.295Z,3.07
2023-04-27T21:19:35.022Z,3.67
2023-04-27T21:22:02.002Z,4.10
2023-04-27T21:24:28.698Z,3.73
2023-04-27T21:26:55.839Z,3.60
2023-04-27T21:29:22.528Z,3.50
2023-04-27T21:31:49.302Z,3.70
2023-04-27T21:34:16.207Z,3.53
2023-04-27T21:36:43.391Z,3.50
2023-04-27T21:39:10.014Z,3.73
2023-04-27T21:41:37.167Z,3.90
2023-04-27T21:44:03.970Z,3.53
2023-04-27T21:46:30.722Z,3.37
2023-04-27T21:48:57.554Z,3.30
2023-04-27T21:51:24.264Z,3.73
2023-04-27T21:53:50.994Z,3.90
2023-04-27T21:56:17.614Z,3.40
2023-04-27T21:58:44.338Z,3.83
2023-04-27T22:01:13.013Z,3.70
2023-04-27T22:03:39.947Z,3.87
2023-04-27T22:06:07.559Z,3.80
2023-04-27T22:08:35.032Z,3.80
2023-04-27T22:11:01.888Z,3.57
2023-04-27T22:13:28.657Z,3.47
2023-04-27T22:15:57.262Z,4.20
2023-04-27T22:18:24.103Z,3.70
2023-04-27T22:20:50.806Z,3.40
2023-04-27T22:23:17.527Z,3.40
2023-04-27T22:25:44.292Z,3.20
2023-04-27T22:28:11.048Z,3.50
2023-04-27T22:30:38.233Z,3.30
2023-04-27T22:33:05.150Z,3.57
2023-04-27T22:35:33.281Z,4.10
2023-04-27T22:38:00.219Z,3.70
2023-04-27T22:40:27.155Z,3.87
2023-04-27T22:42:55.240Z,3.70
2023-04-27T22:45:22.983Z,3.70
2023-04-27T22:47:49.774Z,3.83
2023-04-27T22:50:16.778Z,3.70
2023-04-27T22:52:43.619Z,3.63
2023-04-27T22:55:11.588Z,4.00
2023-04-27T22:57:39.282Z,3.50
2023-04-27T23:00:08.876Z,3.93
2023-04-27T23:02:36.063Z,3.70
2023-04-27T23:05:03.858Z,3.60
2023-04-27T23:07:30.591Z,4.20
2023-04-27T23:09:57.296Z,4.23
2023-04-27T23:12:26.866Z,4.30
2023-04-27T23:14:53.541Z,4.70
2023-04-27T23:17:22.702Z,3.83
2023-04-27T23:19:49.710Z,4.00
2023-04-27T23:22:20.377Z,4.50
2023-04-27T23:24:47.056Z,3.87
2023-04-27T23:27:13.732Z,4.43
2023-04-27T23:29:40.500Z,4.20
2023-04-27T23:32:11.223Z,4.53
2023-04-27T23:34:37.942Z,4.47
2023-04-27T23:37:07.808Z,5.27
2023-04-27T23:39:34.480Z,4.93
2023-04-27T23:42:01.817Z,4.80
2023-04-27T23:44:28.454Z,5.50
2023-04-27T23:46:55.116Z,4.70
2023-04-27T23:49:21.794Z,5.30
2023-04-27T23:51:50.018Z,5.10
2023-04-27T23:54:16.864Z,5.17
2023-04-27T23:56:43.652Z,4.73
2023-04-27T23:59:11.063Z,4.97
